sensor_id;sensor_type;location;lat;lon;timestamp;temperature;humidity
14357;DHT22;7262;48.764;9.166;2024-01-06T00:01:55;5.40;99.90
14357;DHT22;7262;48.764;9.166;2024-01-06T00:04:23;5.40;99.90
14357;DHT22;7262;48.764;9.166;2024-01-06T00:06:50;5.50;99.90
14357;DHT22;7262;48.764;9.166;2024-01-06T00:09:16;5.40;99.90
14357;DHT22;7262;48.764;9.166;2024-01-06T00:11:43;5.50;99.90
14357;DHT22;7262;48.764;9.166;2024-01-06T00:14:10;5.50;99.90
14357;DHT22;7262;48.764;9.166;2024-01-06T00:16:38;5.50;99.90
14357;DHT22;7262;48.764;9.166;2024-01-06T00:19:07;5.50;99.90
14357;DHT22;7262;48.764;9.166;2024-01-06T00:21:35;5.50;99.90
14357;DHT22;7262;48.764;9.166;2024-01-06T00:24:02;5.50;99.90
14357;DHT22;7262;48.764;9.166;2024-01-06T00:26:29;5.50;99.90
14357;DHT22;7262;48.764;9.166;2024-01-06T00:28:59;5.50;99.90
14357;DHT22;7262;48.764;9.166;2024-01-06T00:31:26;5.50;99.90
14357;DHT22;7262;48.764;9.166;2024-01-06T00:33:54;5.50;99.90
14357;DHT22;7262;48.764;9.166;2024-01-06T00:36:21;5.50;99.90
14357;DHT22;7262;48.764;9.166;2024-01-06T00:38:49;5.50;99.90
14357;DHT22;7262;48.764;9.166;2024-01-06T00:41:17;5.50;99.90
14357;DHT22;7262;48.764;9.166;2024-01-06T00:43:44;5.50;99.90
14357;DHT22;7262;48.764;9.166;2024-01-06T00:46:11;5.60;99.90
14357;DHT22;7262;48.764;9.166;2024-01-06T00:48:38;5.50;99.90
14357;DHT22;7262;48.764;9.166;2024-01-06T00:51:05;5.60;99.90
14357;DHT22;7262;48.764;9.166;2024-01-06T00:53:33;5.60;99.90
14357;DHT22;7262;48.764;9.166;2024-01-06T00:56:01;5.60;99.90
14357;DHT22;7262;48.764;9.166;2024-01-06T00:58:28;5.60;99.90
14357;DHT22;7262;48.764;9.166;2024-01-06T01:00:54;5.60;99.90
14357;DHT22;7262;48.764;9.166;2024-01-06T01:03:22;5.60;99.90
14357;DHT22;7262;48.764;9.166;2024-01-06T01:05:48;5.60;99.90
14357;DHT22;7262;48.764;9.166;2024-01-06T01:08:15;5.50;99.90
14357;DHT22;7262;48.764;9.166;2024-01-06T01:10:42;5.50;99.90
14357;DHT22;7262;48.764;9.166;2024-01-06T01:13:11;5.60;99.90
14357;DHT22;7262;48.764;9.166;2024-01-06T01:15:38;5.50;99.90
14357;DHT22;7262;48.764;9.166;2024-01-06T01:18:05;5.60;99.90
14357;DHT22;7262;48.764;9.166;2024-01-06T01:20:31;5.50;99.90
14357;DHT22;7262;48.764;9.166;2024-01-06T01:23:00;5.50;99.90
14357;DHT22;7262;48.764;9.166;2024-01-06T01:25:27;5.50;99.90
14357;DHT22;7262;48.764;9.166;2024-01-06T01:27:53;5.40;99.90
14357;DHT22;7262;48.764;9.166;2024-01-06T01:30:22;5.40;99.90
14357;DHT22;7262;48.764;9.166;2024-01-06T01:32:48;5.40;99.90
14357;DHT22;7262;48.764;9.166;2024-01-06T01:35:16;5.40;99.90
14357;DHT22;7262;48.764;9.166;2024-01-06T01:37:42;5.50;99.90
14357;DHT22;7262;48.764;9.166;2024-01-06T01:40:09;5.40;99.90
14357;DHT22;7262;48.764;9.166;2024-01-06T01:42:36;5.50;99.90
14357;DHT22;7262;48.764;9.166;2024-01-06T01:45:04;5.40;99.90
14357;DHT22;7262;48.764;9.166;2024-01-06T01:47:32;5.40;99.90
14357;DHT22;7262;48.764;9.166;2024-01-06T01:49:59;5.40;99.90
14357;DHT22;7262;48.764;9.166;2024-01-06T01:52:27;5.40;99.90
14357;DHT22;7262;48.764;9.166;2024-01-06T01:54:54;5.40;99.90
14357;DHT22;7262;48.764;9.166;2024-01-06T01:57:21;5.40;99.90
14357;DHT22;7262;48.764;9.166;2024-01-06T01:59:49;5.40;99.90
14357;DHT22;7262;48.764;9.166;2024-01-06T02:02:16;5.40;99.90
14357;DHT22;7262;48.764;9.166;2024-01-06T02:04:46;5.40;99.90
14357;DHT22;7262;48.764;9.166;2024-01-06T02:07:13;5.40;99.90
14357;DHT22;7262;48.764;9.166;2024-01-06T02:09:40;5.40;99.90
14357;DHT22;7262;48.764;9.166;2024-01-06T02:12:06;5.30;99.90
14357;DHT22;7262;48.764;9.166;2024-01-06T02:14:33;5.30;99.90
14357;DHT22;7262;48.764;9.166;2024-01-06T02:17:00;5.30;99.90
14357;DHT22;7262;48.764;9.166;2024-01-06T02:19:27;5.30;99.90
14357;DHT22;7262;48.764;9.166;2024-01-06T02:21:55;5.30;99.90
14357;DHT22;7262;48.764;9.166;2024-01-06T02:24:22;5.30;99.90
14357;DHT22;7262;48.764;9.166;2024-01-06T02:26:49;5.30;99.90
14357;DHT22;7262;48.764;9.166;2024-01-06T02:29:16;5.30;99.90
14357;DHT22;7262;48.764;9.166;2024-01-06T02:31:42;5.30;99.90
14357;DHT22;7262;48.764;9.166;2024-01-06T02:34:09;5.30;99.90
14357;DHT22;7262;48.764;9.166;2024-01-06T02:36:36;5.30;99.90
14357;DHT22;7262;48.764;9.166;2024-01-06T02:39:04;5.30;99.90
14357;DHT22;7262;48.764;9.166;2024-01-06T02:41:31;5.30;99.90
14357;DHT22;7262;48.764;9.166;2024-01-06T02:43:58;5.30;99.90
14357;DHT22;7262;48.764;9.166;2024-01-06T02:46:28;5.30;99.90
14357;DHT22;7262;48.764;9.166;2024-01-06T02:48:54;5.30;99.90
14357;DHT22;7262;48.764;9.166;2024-01-06T02:51:21;5.30;99.90
14357;DHT22;7262;48.764;9.166;2024-01-06T02:53:48;5.30;99.90
14357;DHT22;7262;48.764;9.166;2024-01-06T02:56:16;5.30;99.90
14357;DHT22;7262;48.764;9.166;2024-01-06T02:58:43;5.30;99.90
14357;DHT22;7262;48.764;9.166;2024-01-06T03:01:11;5.30;99.90
14357;DHT22;7262;48.764;9.166;2024-01-06T03:03:38;5.30;99.90
14357;DHT22;7262;48.764;9.166;2024-01-06T03:06:05;5.30;99.90
14357;DHT22;7262;48.764;9.166;2024-01-06T03:08:32;5.30;99.90
14357;DHT22;7262;48.764;9.166;2024-01-06T03:11:00;5.30;99.90
14357;DHT22;7262;48.764;9.166;2024-01-06T03:13:29;5.20;99.90
14357;DHT22;7262;48.764;9.166;2024-01-06T03:15:57;5.20;99.90
14357;DHT22;7262;48.764;9.166;2024-01-06T03:18:23;5.20;99.90
14357;DHT22;7262;48.764;9.166;2024-01-06T03:20:50;5.10;99.90
14357;DHT22;7262;48.764;9.166;2024-01-06T03:23:17;5.20;99.90
14357;DHT22;7262;48.764;9.166;2024-01-06T03:25:43;5.10;99.90
14357;DHT22;7262;48.764;9.166;2024-01-06T03:28:10;5.10;99.90
14357;DHT22;7262;48.764;9.166;2024-01-06T03:30:38;5.20;99.90
14357;DHT22;7262;48.764;9.166;2024-01-06T03:33:05;5.10;99.90
14357;DHT22;7262;48.764;9.166;2024-01-06T03:35:32;5.10;99.90
14357;DHT22;7262;48.764;9.166;2024-01-06T03:45:44;5.10;99.90
14357;DHT22;7262;48.764;9.166;2024-01-06T03:48:11;5.10;99.90
14357;DHT22;7262;48.764;9.166;2024-01-06T03:50:38;5.10;99.90
14357;DHT22;7262;48.764;9.166;2024-01-06T03:53:05;5.10;99.90
14357;DHT22;7262;48.764;9.166;2024-01-06T03:55:31;5.10;99.90
14357;DHT22;7262;48.764;9.166;2024-01-06T03:57:58;5.20;99.90
14357;DHT22;7262;48.764;9.166;2024-01-06T04:00:25;5.20;99.90
14357;DHT22;7262;48.764;9.166;2024-01-06T04:02:53;5.10;99.90
14357;DHT22;7262;48.764;9.166;2024-01-06T04:05:20;5.10;99.90
14357;DHT22;7262;48.764;9.166;2024-01-06T04:07:48;5.10;99.90
14357;DHT22;7262;48.764;9.166;2024-01-06T04:10:15;5.20;99.90
14357;DHT22;7262;48.764;9.166;2024-01-06T04:12:42;5.10;99.90
14357;DHT22;7262;48.764;9.166;2024-01-06T04:15:11;5.10;99.90
14357;DHT22;7262;48.764;9.166;2024-01-06T04:17:38;5.10;99.90
14357;DHT22;7262;48.764;9.166;2024-01-06T04:20:06;5.10;99.90
14357;DHT22;7262;48.764;9.166;2024-01-06T04:22:33;5.10;99.90
14357;DHT22;7262;48.764;9.166;2024-01-06T04:25:00;5.10;99.90
14357;DHT22;7262;48.764;9.166;2024-01-06T04:27:27;5.10;99.90
14357;DHT22;7262;48.764;9.166;2024-01-06T04:29:54;5.10;99.90
14357;DHT22;7262;48.764;9.166;2024-01-06T04:32:21;5.10;99.90
14357;DHT22;7262;48.764;9.166;2024-01-06T04:34:48;5.10;99.90
14357;DHT22;7262;48.764;9.166;2024-01-06T04:37:16;5.10;99.90
14357;DHT22;7262;48.764;9.166;2024-01-06T04:39:43;5.00;99.90
14357;DHT22;7262;48.764;9.166;2024-01-06T04:42:09;5.00;99.90
14357;DHT22;7262;48.764;9.166;2024-01-06T04:44:37;5.00;99.90
14357;DHT22;7262;48.764;9.166;2024-01-06T04:47:05;5.00;99.90
14357;DHT22;7262;48.764;9.166;2024-01-06T04:49:32;5.00;99.90
14357;DHT22;7262;48.764;9.166;2024-01-06T04:51:59;5.00;99.90
14357;DHT22;7262;48.764;9.166;2024-01-06T04:54:27;5.00;99.90
14357;DHT22;7262;48.764;9.166;2024-01-06T04:56:54;4.90;99.90
14357;DHT22;7262;48.764;9.166;2024-01-06T04:59:21;4.90;99.90
14357;DHT22;7262;48.764;9.166;2024-01-06T05:01:48;4.90;99.90
14357;DHT22;7262;48.764;9.166;2024-01-06T05:04:16;4.90;99.90
14357;DHT22;7262;48.764;9.166;2024-01-06T05:06:43;5.00;99.90
14357;DHT22;7262;48.764;9.166;2024-01-06T05:09:10;4.90;99.90
14357;DHT22;7262;48.764;9.166;2024-01-06T05:11:38;4.90;99.90
14357;DHT22;7262;48.764;9.166;2024-01-06T05:14:05;4.90;99.90
14357;DHT22;7262;48.764;9.166;2024-01-06T05:16:31;4.90;99.90
14357;DHT22;7262;48.764;9.166;2024-01-06T05:18:58;4.80;99.90
14357;DHT22;7262;48.764;9.166;2024-01-06T05:21:25;4.80;99.90
14357;DHT22;7262;48.764;9.166;2024-01-06T05:23:52;4.80;99.90
14357;DHT22;7262;48.764;9.166;2024-01-06T05:26:19;4.80;99.90
14357;DHT22;7262;48.764;9.166;2024-01-06T05:28:47;4.90;99.90
14357;DHT22;7262;48.764;9.166;2024-01-06T05:31:14;4.90;99.90
14357;DHT22;7262;48.764;9.166;2024-01-06T05:33:41;4.90;99.90
14357;DHT22;7262;48.764;9.166;2024-01-06T05:36:08;4.90;99.90
14357;DHT22;7262;48.764;9.166;2024-01-06T05:38:35;4.90;99.90
14357;DHT22;7262;48.764;9.166;2024-01-06T05:41:02;4.90;99.90
14357;DHT22;7262;48.764;9.166;2024-01-06T05:43:29;4.90;99.90
14357;DHT22;7262;48.764;9.166;2024-01-06T05:45:57;4.90;99.90
14357;DHT22;7262;48.764;9.166;2024-01-06T05:48:24;4.90;99.90
14357;DHT22;7262;48.764;9.166;2024-01-06T05:50:51;4.90;99.90
14357;DHT22;7262;48.764;9.166;2024-01-06T05:53:18;4.90;99.90
14357;DHT22;7262;48.764;9.166;2024-01-06T05:55:45;5.00;99.90
14357;DHT22;7262;48.764;9.166;2024-01-06T05:58:11;5.00;99.90
14357;DHT22;7262;48.764;9.166;2024-01-06T06:00:38;5.00;99.90
14357;DHT22;7262;48.764;9.166;2024-01-06T06:03:06;5.00;99.90
14357;DHT22;7262;48.764;9.166;2024-01-06T06:05:34;5.00;99.90
14357;DHT22;7262;48.764;9.166;2024-01-06T06:08:00;5.00;99.90
14357;DHT22;7262;48.764;9.166;2024-01-06T06:10:27;5.10;99.90
14357;DHT22;7262;48.764;9.166;2024-01-06T06:13:05;5.10;99.90
14357;DHT22;7262;48.764;9.166;2024-01-06T06:15:35;5.00;99.90
14357;DHT22;7262;48.764;9.166;2024-01-06T06:18:02;5.00;99.90
14357;DHT22;7262;48.764;9.166;2024-01-06T06:20:30;5.00;99.90
14357;DHT22;7262;48.764;9.166;2024-01-06T06:22:57;5.10;99.90
14357;DHT22;7262;48.764;9.166;2024-01-06T06:25:24;5.10;99.90
14357;DHT22;7262;48.764;9.166;2024-01-06T06:27:51;5.10;99.90
14357;DHT22;7262;48.764;9.166;2024-01-06T06:30:17;5.10;99.90
14357;DHT22;7262;48.764;9.166;2024-01-06T06:32:44;5.10;99.90
14357;DHT22;7262;48.764;9.166;2024-01-06T06:35:11;5.10;99.90
14357;DHT22;7262;48.764;9.166;2024-01-06T06:37:39;5.10;99.90
14357;DHT22;7262;48.764;9.166;2024-01-06T06:40:07;5.20;99.90
14357;DHT22;7262;48.764;9.166;2024-01-06T06:42:33;5.20;99.90
14357;DHT22;7262;48.764;9.166;2024-01-06T06:45:00;5.20;99.90
14357;DHT22;7262;48.764;9.166;2024-01-06T06:47:27;5.20;99.90
14357;DHT22;7262;48.764;9.166;2024-01-06T06:49:54;5.20;99.90
14357;DHT22;7262;48.764;9.166;2024-01-06T06:52:21;5.20;99.90
14357;DHT22;7262;48.764;9.166;2024-01-06T06:54:49;5.30;99.90
14357;DHT22;7262;48.764;9.166;2024-01-06T06:57:18;5.10;99.90
14357;DHT22;7262;48.764;9.166;2024-01-06T06:59:45;5.30;99.90
14357;DHT22;7262;48.764;9.166;2024-01-06T07:02:11;5.20;99.90
14357;DHT22;7262;48.764;9.166;2024-01-06T07:04:38;5.20;99.90
14357;DHT22;7262;48.764;9.166;2024-01-06T07:07:05;5.20;99.90
14357;DHT22;7262;48.764;9.166;2024-01-06T07:09:32;5.20;99.90
14357;DHT22;7262;48.764;9.166;2024-01-06T07:17:11;5.10;99.90
14357;DHT22;7262;48.764;9.166;2024-01-06T07:19:38;5.10;99.90
14357;DHT22;7262;48.764;9.166;2024-01-06T07:22:05;5.20;99.90
14357;DHT22;7262;48.764;9.166;2024-01-06T07:24:32;5.20;99.90
14357;DHT22;7262;48.764;9.166;2024-01-06T07:26:58;5.20;99.90
14357;DHT22;7262;48.764;9.166;2024-01-06T07:29:25;5.20;99.90
14357;DHT22;7262;48.764;9.166;2024-01-06T07:31:52;5.20;99.90
14357;DHT22;7262;48.764;9.166;2024-01-06T07:34:22;5.30;99.90
14357;DHT22;7262;48.764;9.166;2024-01-06T07:36:50;5.20;99.90
14357;DHT22;7262;48.764;9.166;2024-01-06T07:39:17;5.30;99.90
14357;DHT22;7262;48.764;9.166;2024-01-06T07:41:44;5.30;99.90
14357;DHT22;7262;48.764;9.166;2024-01-06T07:44:11;5.40;99.90
14357;DHT22;7262;48.764;9.166;2024-01-06T07:46:38;5.40;99.90
14357;DHT22;7262;48.764;9.166;2024-01-06T07:49:06;5.40;99.90
14357;DHT22;7262;48.764;9.166;2024-01-06T07:51:34;5.30;99.90
14357;DHT22;7262;48.764;9.166;2024-01-06T07:54:01;5.30;99.90
14357;DHT22;7262;48.764;9.166;2024-01-06T07:56:28;5.30;99.90
14357;DHT22;7262;48.764;9.166;2024-01-06T07:58:55;5.30;99.90
14357;DHT22;7262;48.764;9.166;2024-01-06T08:01:22;5.30;99.90
14357;DHT22;7262;48.764;9.166;2024-01-06T08:03:48;5.30;99.90
14357;DHT22;7262;48.764;9.166;2024-01-06T08:06:16;5.30;99.90
14357;DHT22;7262;48.764;9.166;2024-01-06T08:08:47;5.30;99.90
14357;DHT22;7262;48.764;9.166;2024-01-06T08:11:13;5.40;99.90
14357;DHT22;7262;48.764;9.166;2024-01-06T08:13:40;5.40;99.90
14357;DHT22;7262;48.764;9.166;2024-01-06T08:16:07;5.50;99.90
14357;DHT22;7262;48.764;9.166;2024-01-06T08:18:35;5.50;99.90
14357;DHT22;7262;48.764;9.166;2024-01-06T08:21:02;5.60;99.90
14357;DHT22;7262;48.764;9.166;2024-01-06T08:23:29;5.60;99.90
14357;DHT22;7262;48.764;9.166;2024-01-06T08:31:07;5.70;99.90
14357;DHT22;7262;48.764;9.166;2024-01-06T08:33:34;5.80;99.90
14357;DHT22;7262;48.764;9.166;2024-01-06T08:36:01;5.80;99.90
14357;DHT22;7262;48.764;9.166;2024-01-06T08:38:28;5.80;99.90
14357;DHT22;7262;48.764;9.166;2024-01-06T08:40:55;5.90;99.90
14357;DHT22;7262;48.764;9.166;2024-01-06T08:43:21;5.90;99.90
14357;DHT22;7262;48.764;9.166;2024-01-06T08:45:48;5.90;99.90
14357;DHT22;7262;48.764;9.166;2024-01-06T08:48:17;6.00;99.90
14357;DHT22;7262;48.764;9.166;2024-01-06T08:50:44;6.00;99.90
14357;DHT22;7262;48.764;9.166;2024-01-06T08:53:12;6.10;99.90
14357;DHT22;7262;48.764;9.166;2024-01-06T09:06:02;6.60;99.90
14357;DHT22;7262;48.764;9.166;2024-01-06T09:08:29;6.60;99.90
14357;DHT22;7262;48.764;9.166;2024-01-06T09:10:56;6.70;99.90
14357;DHT22;7262;48.764;9.166;2024-01-06T09:13:23;6.80;99.90
14357;DHT22;7262;48.764;9.166;2024-01-06T09:15:50;6.80;99.90
14357;DHT22;7262;48.764;9.166;2024-01-06T09:18:18;6.80;99.90
14357;DHT22;7262;48.764;9.166;2024-01-06T09:20:46;6.80;99.90
14357;DHT22;7262;48.764;9.166;2024-01-06T09:23:15;6.90;99.90
14357;DHT22;7262;48.764;9.166;2024-01-06T09:25:42;7.00;99.90
14357;DHT22;7262;48.764;9.166;2024-01-06T09:28:09;7.10;99.90
14357;DHT22;7262;48.764;9.166;2024-01-06T09:30:36;7.20;99.90
14357;DHT22;7262;48.764;9.166;2024-01-06T09:33:04;7.30;99.90
14357;DHT22;7262;48.764;9.166;2024-01-06T09:40:46;7.30;99.90
14357;DHT22;7262;48.764;9.166;2024-01-06T09:43:15;7.30;99.90
14357;DHT22;7262;48.764;9.166;2024-01-06T09:45:41;7.40;99.90
14357;DHT22;7262;48.764;9.166;2024-01-06T09:48:10;7.40;99.90
14357;DHT22;7262;48.764;9.166;2024-01-06T09:50:37;7.40;99.90
14357;DHT22;7262;48.764;9.166;2024-01-06T09:53:04;7.50;99.90
14357;DHT22;7262;48.764;9.166;2024-01-06T09:55:32;7.60;99.90
14357;DHT22;7262;48.764;9.166;2024-01-06T09:58:00;7.60;99.90
14357;DHT22;7262;48.764;9.166;2024-01-06T10:00:27;7.70;99.90
14357;DHT22;7262;48.764;9.166;2024-01-06T10:02:56;7.70;99.90
14357;DHT22;7262;48.764;9.166;2024-01-06T10:05:23;7.80;99.90
14357;DHT22;7262;48.764;9.166;2024-01-06T10:07:50;7.70;99.90
14357;DHT22;7262;48.764;9.166;2024-01-06T10:10:17;7.60;99.90
14357;DHT22;7262;48.764;9.166;2024-01-06T10:12:45;7.60;99.90
14357;DHT22;7262;48.764;9.166;2024-01-06T10:15:13;7.40;99.90
14357;DHT22;7262;48.764;9.166;2024-01-06T10:17:40;7.40;99.90
14357;DHT22;7262;48.764;9.166;2024-01-06T10:20:08;7.20;99.90
14357;DHT22;7262;48.764;9.166;2024-01-06T10:22:35;7.30;99.90
14357;DHT22;7262;48.764;9.166;2024-01-06T10:25:02;7.20;99.90
14357;DHT22;7262;48.764;9.166;2024-01-06T10:27:30;7.20;99.90
14357;DHT22;7262;48.764;9.166;2024-01-06T10:29:57;7.20;99.90
14357;DHT22;7262;48.764;9.166;2024-01-06T10:32:26;7.20;99.90
14357;DHT22;7262;48.764;9.166;2024-01-06T10:34:55;7.20;99.90
14357;DHT22;7262;48.764;9.166;2024-01-06T11:19:41;7.00;99.90
14357;DHT22;7262;48.764;9.166;2024-01-06T11:22:03;7.00;99.90
14357;DHT22;7262;48.764;9.166;2024-01-06T11:24:46;7.30;99.90
14357;DHT22;7262;48.764;9.166;2024-01-06T11:27:17;7.20;99.90
14357;DHT22;7262;48.764;9.166;2024-01-06T11:29:46;7.20;99.90
14357;DHT22;7262;48.764;9.166;2024-01-06T11:32:16;7.20;99.90
14357;DHT22;7262;48.764;9.166;2024-01-06T11:34:50;7.00;99.90
14357;DHT22;7262;48.764;9.166;2024-01-06T11:37:19;7.20;99.90
14357;DHT22;7262;48.764;9.166;2024-01-06T11:39:46;7.50;99.90
14357;DHT22;7262;48.764;9.166;2024-01-06T11:42:13;7.40;99.90
14357;DHT22;7262;48.764;9.166;2024-01-06T11:44:42;7.30;99.90
14357;DHT22;7262;48.764;9.166;2024-01-06T11:47:11;7.20;99.90
14357;DHT22;7262;48.764;9.166;2024-01-06T11:49:39;7.10;99.90
14357;DHT22;7262;48.764;9.166;2024-01-06T11:52:09;7.20;99.90
14357;DHT22;7262;48.764;9.166;2024-01-06T11:54:37;7.10;99.90
14357;DHT22;7262;48.764;9.166;2024-01-06T11:57:04;7.20;99.90
14357;DHT22;7262;48.764;9.166;2024-01-06T11:59:31;7.20;99.90
14357;DHT22;7262;48.764;9.166;2024-01-06T12:01:58;7.30;99.90
14357;DHT22;7262;48.764;9.166;2024-01-06T12:04:25;7.30;99.90
14357;DHT22;7262;48.764;9.166;2024-01-06T12:07:05;7.30;99.90
14357;DHT22;7262;48.764;9.166;2024-01-06T12:09:34;7.10;99.90
14357;DHT22;7262;48.764;9.166;2024-01-06T12:12:02;6.90;99.90
14357;DHT22;7262;48.764;9.166;2024-01-06T12:14:30;6.80;99.90
14357;DHT22;7262;48.764;9.166;2024-01-06T12:17:01;6.80;99.90
14357;DHT22;7262;48.764;9.166;2024-01-06T12:19:30;6.80;99.90
14357;DHT22;7262;48.764;9.166;2024-01-06T12:21:57;6.80;99.90
14357;DHT22;7262;48.764;9.166;2024-01-06T12:24:26;6.80;99.90
14357;DHT22;7262;48.764;9.166;2024-01-06T12:26:56;6.80;99.90
14357;DHT22;7262;48.764;9.166;2024-01-06T12:29:26;6.80;99.90
14357;DHT22;7262;48.764;9.166;2024-01-06T12:31:54;6.80;99.90
14357;DHT22;7262;48.764;9.166;2024-01-06T12:34:21;6.80;99.90
14357;DHT22;7262;48.764;9.166;2024-01-06T12:36:48;6.80;99.90
14357;DHT22;7262;48.764;9.166;2024-01-06T12:39:27;6.70;99.90
14357;DHT22;7262;48.764;9.166;2024-01-06T12:41:54;6.70;99.90
14357;DHT22;7262;48.764;9.166;2024-01-06T12:44:28;6.60;99.90
14357;DHT22;7262;48.764;9.166;2024-01-06T12:46:54;6.60;99.90
14357;DHT22;7262;48.764;9.166;2024-01-06T12:49:21;6.70;99.90
14357;DHT22;7262;48.764;9.166;2024-01-06T12:51:48;6.80;99.90
14357;DHT22;7262;48.764;9.166;2024-01-06T12:54:16;6.80;99.90
14357;DHT22;7262;48.764;9.166;2024-01-06T12:56:45;6.80;99.90
14357;DHT22;7262;48.764;9.166;2024-01-06T12:59:11;6.70;99.90
14357;DHT22;7262;48.764;9.166;2024-01-06T13:01:39;6.80;99.90
14357;DHT22;7262;48.764;9.166;2024-01-06T13:04:08;6.80;99.90
14357;DHT22;7262;48.764;9.166;2024-01-06T13:06:37;6.80;99.90
14357;DHT22;7262;48.764;9.166;2024-01-06T13:09:05;6.90;99.90
14357;DHT22;7262;48.764;9.166;2024-01-06T13:11:33;6.80;99.90
14357;DHT22;7262;48.764;9.166;2024-01-06T13:14:02;6.60;99.90
14357;DHT22;7262;48.764;9.166;2024-01-06T13:16:29;6.60;99.90
14357;DHT22;7262;48.764;9.166;2024-01-06T13:18:57;6.60;99.90
14357;DHT22;7262;48.764;9.166;2024-01-06T13:21:24;6.60;99.90
14357;DHT22;7262;48.764;9.166;2024-01-06T13:23:51;6.60;99.90
14357;DHT22;7262;48.764;9.166;2024-01-06T13:26:20;6.60;99.90
14357;DHT22;7262;48.764;9.166;2024-01-06T13:28:48;6.50;99.90
14357;DHT22;7262;48.764;9.166;2024-01-06T13:31:16;6.30;99.90
14357;DHT22;7262;48.764;9.166;2024-01-06T13:33:42;6.50;99.90
14357;DHT22;7262;48.764;9.166;2024-01-06T13:36:10;6.40;99.90
14357;DHT22;7262;48.764;9.166;2024-01-06T13:38:37;6.40;99.90
14357;DHT22;7262;48.764;9.166;2024-01-06T13:41:07;6.50;99.90
14357;DHT22;7262;48.764;9.166;2024-01-06T13:43:34;6.40;99.90
14357;DHT22;7262;48.764;9.166;2024-01-06T13:46:01;6.40;99.90
14357;DHT22;7262;48.764;9.166;2024-01-06T13:48:28;6.40;99.90
14357;DHT22;7262;48.764;9.166;2024-01-06T13:50:55;6.40;99.90
14357;DHT22;7262;48.764;9.166;2024-01-06T13:53:24;6.40;99.90
14357;DHT22;7262;48.764;9.166;2024-01-06T13:55:50;6.40;99.90
14357;DHT22;7262;48.764;9.166;2024-01-06T14:00:53;6.40;99.90
14357;DHT22;7262;48.764;9.166;2024-01-06T14:03:20;6.40;99.90
14357;DHT22;7262;48.764;9.166;2024-01-06T14:05:47;6.40;99.90
14357;DHT22;7262;48.764;9.166;2024-01-06T14:08:16;6.40;99.90
14357;DHT22;7262;48.764;9.166;2024-01-06T14:10:44;6.40;99.90
14357;DHT22;7262;48.764;9.166;2024-01-06T14:13:11;6.40;99.90
14357;DHT22;7262;48.764;9.166;2024-01-06T14:15:38;6.40;99.90
14357;DHT22;7262;48.764;9.166;2024-01-06T14:18:05;6.30;99.90
14357;DHT22;7262;48.764;9.166;2024-01-06T14:20:36;6.20;99.90
14357;DHT22;7262;48.764;9.166;2024-01-06T14:23:03;6.20;99.90
14357;DHT22;7262;48.764;9.166;2024-01-06T14:25:30;6.20;99.90
14357;DHT22;7262;48.764;9.166;2024-01-06T14:27:59;6.20;99.90
14357;DHT22;7262;48.764;9.166;2024-01-06T14:30:26;6.20;99.90
14357;DHT22;7262;48.764;9.166;2024-01-06T14:32:55;6.20;99.90
14357;DHT22;7262;48.764;9.166;2024-01-06T14:35:27;6.20;99.90
14357;DHT22;7262;48.764;9.166;2024-01-06T14:37:53;6.20;99.90
14357;DHT22;7262;48.764;9.166;2024-01-06T14:40:22;6.30;99.90
14357;DHT22;7262;48.764;9.166;2024-01-06T14:42:49;6.10;99.90
14357;DHT22;7262;48.764;9.166;2024-01-06T14:45:18;6.10;99.90
14357;DHT22;7262;48.764;9.166;2024-01-06T14:47:45;6.10;99.90
14357;DHT22;7262;48.764;9.166;2024-01-06T14:50:12;6.10;99.90
14357;DHT22;7262;48.764;9.166;2024-01-06T14:52:39;6.10;99.90
14357;DHT22;7262;48.764;9.166;2024-01-06T14:55:07;6.10;99.90
14357;DHT22;7262;48.764;9.166;2024-01-06T14:57:35;6.10;99.90
14357;DHT22;7262;48.764;9.166;2024-01-06T15:00:03;6.10;99.90
14357;DHT22;7262;48.764;9.166;2024-01-06T15:02:32;6.00;99.90
14357;DHT22;7262;48.764;9.166;2024-01-06T15:04:59;6.00;99.90
14357;DHT22;7262;48.764;9.166;2024-01-06T15:07:26;6.00;99.90
14357;DHT22;7262;48.764;9.166;2024-01-06T15:09:53;6.00;99.90
14357;DHT22;7262;48.764;9.166;2024-01-06T15:12:19;5.90;99.90
14357;DHT22;7262;48.764;9.166;2024-01-06T15:14:47;6.00;99.90
14357;DHT22;7262;48.764;9.166;2024-01-06T15:17:13;6.00;99.90
14357;DHT22;7262;48.764;9.166;2024-01-06T15:19:44;6.00;99.90
14357;DHT22;7262;48.764;9.166;2024-01-06T15:22:11;6.00;99.90
14357;DHT22;7262;48.764;9.166;2024-01-06T15:24:38;6.00;99.90
14357;DHT22;7262;48.764;9.166;2024-01-06T15:27:05;6.00;99.90
14357;DHT22;7262;48.764;9.166;2024-01-06T15:29:32;6.00;99.90
14357;DHT22;7262;48.764;9.166;2024-01-06T15:31:59;6.00;99.90
14357;DHT22;7262;48.764;9.166;2024-01-06T15:34:26;5.90;99.90
14357;DHT22;7262;48.764;9.166;2024-01-06T15:36:55;6.00;99.90
14357;DHT22;7262;48.764;9.166;2024-01-06T15:39:21;6.00;99.90
14357;DHT22;7262;48.764;9.166;2024-01-06T15:41:49;6.00;99.90
14357;DHT22;7262;48.764;9.166;2024-01-06T15:44:17;5.90;99.90
14357;DHT22;7262;48.764;9.166;2024-01-06T15:46:43;5.80;99.90
14357;DHT22;7262;48.764;9.166;2024-01-06T15:49:11;5.90;99.90
14357;DHT22;7262;48.764;9.166;2024-01-06T15:51:38;5.80;99.90
14357;DHT22;7262;48.764;9.166;2024-01-06T15:54:07;5.80;99.90
14357;DHT22;7262;48.764;9.166;2024-01-06T15:56:33;5.80;99.90
14357;DHT22;7262;48.764;9.166;2024-01-06T15:59:00;5.70;99.90
14357;DHT22;7262;48.764;9.166;2024-01-06T16:19:36;5.90;99.90
14357;DHT22;7262;48.764;9.166;2024-01-06T16:22:03;5.90;99.90
14357;DHT22;7262;48.764;9.166;2024-01-06T16:24:30;5.90;99.90
14357;DHT22;7262;48.764;9.166;2024-01-06T16:26:59;5.80;99.90
14357;DHT22;7262;48.764;9.166;2024-01-06T16:29:26;5.90;99.90
14357;DHT22;7262;48.764;9.166;2024-01-06T16:31:56;5.80;99.90
14357;DHT22;7262;48.764;9.166;2024-01-06T17:08:58;5.80;99.90
14357;DHT22;7262;48.764;9.166;2024-01-06T17:11:25;5.90;99.90
14357;DHT22;7262;48.764;9.166;2024-01-06T17:13:52;5.80;99.90
14357;DHT22;7262;48.764;9.166;2024-01-06T17:16:19;5.90;99.90
14357;DHT22;7262;48.764;9.166;2024-01-06T17:18:45;5.90;99.90
14357;DHT22;7262;48.764;9.166;2024-01-06T17:21:14;5.80;99.90
14357;DHT22;7262;48.764;9.166;2024-01-06T17:23:43;5.80;99.90
14357;DHT22;7262;48.764;9.166;2024-01-06T17:26:13;5.80;99.90
14357;DHT22;7262;48.764;9.166;2024-01-06T17:28:43;5.70;99.90
14357;DHT22;7262;48.764;9.166;2024-01-06T17:31:10;5.80;99.90
14357;DHT22;7262;48.764;9.166;2024-01-06T17:43:55;5.70;99.90
14357;DHT22;7262;48.764;9.166;2024-01-06T17:46:23;5.70;99.90
14357;DHT22;7262;48.764;9.166;2024-01-06T18:25:12;5.80;99.90
14357;DHT22;7262;48.764;9.166;2024-01-06T18:27:39;5.80;99.90
14357;DHT22;7262;48.764;9.166;2024-01-06T18:30:08;5.80;99.90
14357;DHT22;7262;48.764;9.166;2024-01-06T18:32:35;5.80;99.90
14357;DHT22;7262;48.764;9.166;2024-01-06T18:37:44;5.60;99.90
14357;DHT22;7262;48.764;9.166;2024-01-06T18:40:23;5.60;99.90
14357;DHT22;7262;48.764;9.166;2024-01-06T18:42:52;5.60;99.90
14357;DHT22;7262;48.764;9.166;2024-01-06T18:50:29;5.50;99.90
14357;DHT22;7262;48.764;9.166;2024-01-06T18:52:56;5.50;99.90
14357;DHT22;7262;48.764;9.166;2024-01-06T18:55:33;5.50;99.90
14357;DHT22;7262;48.764;9.166;2024-01-06T19:00:36;5.60;99.90
14357;DHT22;7262;48.764;9.166;2024-01-06T19:05:40;5.60;99.90
14357;DHT22;7262;48.764;9.166;2024-01-06T19:08:06;5.60;99.90
14357;DHT22;7262;48.764;9.166;2024-01-06T19:13:10;5.70;99.90
14357;DHT22;7262;48.764;9.166;2024-01-06T19:15:37;5.70;99.90
14357;DHT22;7262;48.764;9.166;2024-01-06T19:18:04;5.70;99.90